createdAt,value
2023-04-18T05:07:54.020Z,21.23
2023-04-18T05:10:21.065Z,21.30
2023-04-18T05:12:47.775Z,19.48
2023-04-18T05:15:16.227Z,21.00
2023-04-18T05:17:42.855Z,20.73
2023-04-18T05:20:10.116Z,20.60
2023-04-18T05:22:36.752Z,20.48
2023-04-18T05:25:03.653Z,22.50
2023-04-18T05:27:30.308Z,21.98
2023-04-18T05:29:56.923Z,21.85
2023-04-18T05:32:23.616Z,23.25
2023-04-18T05:34:51.123Z,22.17
2023-04-18T05:37:17.884Z,22.60
2023-04-18T05:39:44.516Z,22.52
2023-04-18T05:42:11.160Z,23.85
2023-04-18T05:44:37.815Z,21.48
2023-04-18T05:47:06.610Z,22.40
2023-04-18T05:49:33.317Z,21.38
2023-04-18T05:51:59.944Z,21.27
2023-04-18T05:54:27.382Z,22.55
2023-04-18T05:56:55.016Z,20.85
2023-04-18T05:59:21.698Z,21.43
2023-04-18T06:01:49.325Z,21.77
2023-04-18T06:04:16.874Z,20.53
2023-04-18T06:06:43.892Z,21.33
2023-04-18T06:09:10.639Z,21.83
2023-04-18T06:11:37.232Z,21.48
2023-04-18T06:14:03.918Z,21.90
2023-04-18T06:16:30.629Z,22.73
2023-04-18T06:19:00.913Z,23.55
2023-04-18T06:21:28.050Z,21.58
2023-04-18T06:23:54.905Z,22.63
2023-04-18T06:26:21.510Z,22.25
2023-04-18T06:28:48.161Z,23.00
2023-04-18T06:31:14.819Z,21.83
2023-04-18T06:33:41.429Z,22.02
2023-04-18T06:36:08.969Z,23.75
2023-04-18T06:38:35.686Z,21.20
2023-04-18T06:41:02.312Z,21.95
2023-04-18T06:43:29.017Z,22.27
2023-04-18T06:45:56.743Z,21.13
2023-04-18T06:48:23.668Z,23.02
2023-04-18T06:50:50.292Z,20.55
2023-04-18T06:53:16.909Z,21.27
2023-04-18T06:55:43.518Z,21.15
2023-04-18T06:58:10.236Z,21.35
2023-04-18T07:00:36.883Z,20.63
2023-04-18T07:03:11.288Z,20.98
2023-04-18T07:05:38.395Z,19.98
2023-04-18T07:08:05.122Z,20.35
2023-04-18T07:10:31.908Z,19.42
2023-04-18T07:12:58.559Z,20.23
2023-04-18T07:15:25.377Z,20.17
2023-04-18T07:17:52.003Z,19.65
2023-04-18T07:20:18.675Z,20.23
2023-04-18T07:22:45.980Z,19.38
2023-04-18T07:25:12.665Z,19.73
2023-04-18T07:27:39.330Z,19.45
2023-04-18T07:30:08.509Z,19.50
2023-04-18T07:32:35.556Z,19.58
2023-04-18T07:35:03.358Z,19.52
2023-04-18T07:37:30.295Z,19.40
2023-04-18T07:39:56.969Z,22.33
2023-04-18T07:42:23.590Z,22.27
2023-04-18T07:44:50.193Z,21.42
2023-04-18T07:47:17.153Z,19.30
2023-04-18T07:49:43.815Z,18.27
2023-04-18T07:52:10.725Z,18.98
2023-04-18T07:54:37.317Z,19.13
2023-04-18T07:57:04.058Z,17.85
2023-04-18T07:59:32.234Z,18.95
2023-04-18T08:01:58.962Z,18.30
2023-04-18T08:04:28.192Z,18.10
2023-04-18T08:06:56.473Z,18.88
2023-04-18T08:09:23.035Z,18.08
2023-04-18T08:11:49.640Z,18.38
2023-04-18T08:14:16.417Z,17.83
2023-04-18T08:16:43.099Z,18.73
2023-04-18T08:19:09.846Z,19.00
2023-04-18T08:21:36.622Z,18.27
2023-04-18T08:24:03.344Z,18.20
2023-04-18T08:26:30.002Z,19.33
2023-04-18T08:28:56.764Z,17.77
2023-04-18T08:31:31.739Z,18.40
2023-04-18T08:33:58.444Z,17.88
2023-04-18T08:36:25.092Z,18.60
2023-04-18T08:38:51.677Z,17.70
2023-04-18T08:41:23.267Z,18.35
2023-04-18T08:43:49.968Z,18.33
2023-04-18T08:46:17.259Z,18.38
2023-04-18T08:48:44.592Z,17.05
2023-04-18T08:51:11.660Z,17.52
2023-04-18T08:53:39.328Z,18.52
2023-04-18T08:56:10.304Z,17.40
2023-04-18T08:58:36.950Z,19.02
2023-04-18T09:01:03.773Z,18.25
2023-04-18T09:03:39.158Z,18.33
2023-04-18T09:06:18.946Z,17.45
2023-04-18T09:08:58.756Z,17.00
2023-04-18T09:11:29.031Z,18.27
2023-04-18T09:14:04.472Z,16.77
2023-04-18T09:16:46.862Z,18.50
2023-04-18T09:19:17.970Z,17.60
2023-04-18T09:21:48.750Z,18.10
2023-04-18T09:24:38.157Z,16.98
2023-04-18T09:27:12.031Z,17.42
2023-04-18T09:29:51.904Z,16.63
2023-04-18T09:32:25.137Z,16.35
2023-04-18T09:34:54.453Z,17.15
2023-04-18T09:37:21.800Z,16.25
2023-04-18T09:39:49.901Z,15.27
2023-04-18T09:42:22.816Z,15.35
2023-04-18T09:45:01.953Z,16.63
2023-04-18T09:47:28.627Z,15.68
2023-04-18T09:49:55.612Z,16.30
2023-04-18T09:52:27.933Z,15.52
2023-04-18T09:54:59.697Z,16.38
2023-04-18T09:57:28.782Z,16.90
2023-04-18T10:00:20.160Z,16.00
2023-04-18T10:03:09.756Z,15.68
2023-04-18T10:05:42.880Z,15.63
2023-04-18T10:08:10.669Z,15.70
2023-04-18T10:10:41.324Z,15.20
2023-04-18T10:13:11.117Z,16.15
2023-04-18T10:15:38.598Z,14.85
2023-04-18T10:18:16.542Z,14.97
2023-04-18T10:20:44.447Z,15.98
2023-04-18T10:23:34.510Z,15.90
2023-04-18T10:26:02.521Z,14.55
2023-04-18T10:28:57.238Z,15.35
2023-04-18T10:31:28.604Z,15.20
2023-04-18T10:36:28.270Z,13.45
2023-04-18T10:39:00.528Z,14.38
2023-04-18T10:41:30.117Z,13.77
2023-04-18T10:44:09.599Z,12.95
2023-04-18T10:46:38.318Z,13.55
2023-04-18T10:49:18.502Z,13.50
2023-04-18T10:51:49.676Z,14.18
2023-04-18T10:54:22.013Z,12.40
2023-04-18T10:56:56.592Z,13.23
2023-04-18T10:59:25.089Z,12.65
2023-04-18T11:04:24.076Z,11.48
2023-04-18T11:06:54.898Z,12.88
2023-04-18T11:09:22.594Z,12.02
2023-04-18T11:12:07.086Z,12.05
2023-04-18T11:14:52.017Z,11.32
2023-04-18T11:17:24.304Z,11.05
2023-04-18T11:19:51.844Z,12.00
2023-04-18T11:22:19.045Z,11.70
2023-04-18T11:24:45.782Z,12.30
2023-04-18T11:27:12.815Z,12.20
2023-04-18T11:29:39.489Z,11.85
2023-04-18T11:32:07.620Z,12.45
2023-04-18T11:34:35.706Z,12.77
2023-04-18T11:37:07.031Z,11.90
2023-04-18T11:39:57.224Z,12.80
2023-04-18T11:42:33.022Z,12.60
2023-04-18T11:44:59.835Z,11.93
2023-04-18T11:47:31.764Z,12.48
2023-04-18T11:50:04.601Z,11.48
2023-04-18T11:52:32.160Z,11.57
2023-04-18T11:55:27.077Z,11.48
2023-04-18T11:57:57.415Z,11.00
2023-04-18T12:00:33.074Z,10.93
2023-04-18T12:03:01.878Z,10.85
2023-04-18T12:05:32.495Z,11.30
2023-04-18T12:08:26.897Z,10.93
2023-04-18T12:10:54.590Z,11.48
2023-04-18T12:13:32.440Z,10.05
2023-04-18T12:16:01.961Z,9.93
2023-04-18T12:18:29.873Z,9.43
2023-04-18T12:20:58.547Z,9.75
2023-04-18T12:23:40.230Z,9.35
2023-04-18T12:26:10.994Z,9.10
2023-04-18T12:28:37.666Z,8.18
2023-04-18T12:31:07.894Z,8.40
2023-04-18T12:33:36.583Z,8.02
2023-04-18T12:36:05.273Z,8.30
2023-04-18T12:38:31.958Z,8.18
2023-04-18T12:40:58.669Z,7.55
2023-04-18T12:43:25.753Z,7.28
2023-04-18T12:45:52.481Z,7.72
2023-04-18T12:48:19.088Z,7.30
2023-04-18T12:50:45.896Z,7.97
2023-04-18T12:53:12.485Z,7.50
2023-04-18T12:55:39.126Z,8.00
2023-04-18T12:58:05.861Z,8.27
2023-04-18T13:00:32.869Z,7.15
2023-04-18T13:03:00.246Z,7.30
2023-04-18T13:05:32.593Z,8.27
2023-04-18T13:08:15.231Z,7.88
2023-04-18T13:10:44.275Z,8.50
2023-04-18T13:13:10.965Z,7.82
2023-04-18T13:15:37.715Z,7.93
2023-04-18T13:18:06.421Z,8.10
2023-04-18T13:20:34.182Z,8.02
2023-04-18T13:23:02.450Z,8.68
2023-04-18T13:27:56.645Z,7.75
2023-04-18T13:30:23.251Z,7.20
2023-04-18T13:32:49.874Z,6.72
2023-04-18T13:35:16.590Z,7.22
2023-04-18T13:37:43.257Z,6.68
2023-04-18T13:40:10.336Z,6.50
2023-04-18T13:42:38.456Z,6.88
2023-04-18T13:45:05.734Z,6.88
2023-04-18T13:47:32.760Z,6.70
2023-04-18T13:49:59.536Z,6.38
2023-04-18T13:52:26.291Z,5.75
2023-04-18T13:54:52.972Z,6.63
2023-04-18T13:57:19.746Z,5.95
2023-04-18T13:59:46.795Z,6.13
2023-04-18T14:02:13.666Z,6.18
2023-04-18T14:04:40.510Z,6.10
2023-04-18T14:07:07.949Z,5.53
2023-04-18T14:09:34.915Z,6.13
2023-04-18T14:12:02.035Z,6.65
2023-04-18T14:14:29.318Z,6.75
2023-04-18T14:16:55.992Z,7.68
2023-04-18T14:19:22.789Z,7.38
2023-04-18T14:21:49.452Z,7.03
2023-04-18T14:24:16.251Z,7.70
2023-04-18T14:26:43.947Z,7.50
2023-04-18T14:29:14.734Z,7.28
2023-04-18T14:31:41.959Z,6.63
2023-04-18T14:34:09.584Z,6.82
2023-04-18T14:36:36.717Z,7.10
2023-04-18T14:39:04.862Z,6.65
2023-04-18T14:41:40.484Z,6.45
2023-04-18T14:44:07.097Z,5.93
2023-04-18T14:46:37.117Z,6.78
2023-04-18T14:49:03.760Z,6.97
2023-04-18T14:51:45.584Z,7.53
2023-04-18T14:54:24.886Z,6.78
2023-04-18T14:56:51.568Z,6.57
2023-04-18T15:04:15.085Z,6.38
2023-04-18T15:15:59.453Z,6.30
2023-04-18T15:18:26.460Z,5.97
2023-04-18T15:33:51.448Z,7.70
2023-04-18T15:40:51.125Z,7.47
2023-04-18T15:51:44.189Z,7.75
2023-04-18T15:54:11.024Z,8.40
2023-04-18T15:56:37.687Z,8.10
2023-04-18T16:03:34.101Z,7.82
2023-04-18T16:10:26.140Z,7.55
2023-04-18T16:14:01.010Z,8.18
2023-04-18T16:16:28.441Z,8.18
2023-04-18T16:18:55.222Z,7.57
2023-04-18T16:21:24.743Z,7.72
2023-04-18T16:23:51.596Z,7.88
2023-04-18T16:26:21.286Z,8.48
2023-04-18T16:28:48.558Z,7.50
2023-04-18T16:31:17.953Z,7.38
2023-04-18T16:33:45.367Z,7.05
2023-04-18T16:40:31.915Z,6.85
2023-04-18T16:42:58.670Z,6.57
2023-04-18T16:45:25.313Z,6.80
2023-04-18T16:47:58.476Z,6.88
2023-04-18T16:50:25.782Z,6.53
2023-04-18T16:52:52.436Z,6.45
2023-04-18T16:59:22.075Z,6.43
2023-04-18T17:18:42.500Z,6.20
2023-04-18T17:26:34.785Z,9.48
2023-04-18T17:28:28.323Z,5.88
2023-04-18T17:29:04.717Z,5.75
2023-04-18T17:31:34.492Z,6.10
2023-04-18T17:34:01.290Z,6.05
2023-04-18T17:36:33.332Z,6.10
2023-04-18T17:42:36.909Z,6.65
2023-04-18T17:45:08.269Z,6.30
2023-04-18T17:47:36.624Z,6.43
2023-04-18T17:52:33.062Z,7.00
2023-04-18T17:55:01.662Z,6.45
2023-04-18T17:57:30.390Z,6.38
2023-04-18T17:59:57.134Z,7.15
2023-04-18T18:02:24.135Z,6.43
2023-04-18T18:04:51.652Z,6.93
2023-04-18T18:07:18.535Z,7.32
2023-04-18T18:09:46.763Z,7.65
2023-04-18T18:12:21.572Z,8.02
2023-04-18T18:14:48.746Z,7.60
2023-04-18T18:17:22.053Z,8.18
2023-04-18T18:19:48.674Z,7.93
2023-04-18T18:22:15.910Z,7.95
2023-04-18T18:24:42.760Z,8.20
2023-04-18T18:31:53.594Z,7.75
2023-04-18T18:34:21.508Z,8.10
2023-04-18T18:36:57.168Z,8.27
2023-04-18T18:39:23.777Z,8.55
2023-04-18T18:41:50.716Z,8.93
2023-04-18T18:49:10.680Z,9.20
2023-04-18T18:51:37.371Z,10.60
2023-04-18T19:35:42.878Z,8.38
2023-04-18T19:47:21.857Z,9.02
2023-04-18T19:54:16.080Z,9.35
2023-04-18T20:07:02.494Z,9.80
2023-04-18T20:24:16.018Z,11.50
2023-04-18T20:41:48.910Z,12.65
2023-04-18T20:44:45.740Z,14.23
